sensor_id;sensor_type;location;lat;lon;timestamp;P1;durP1;ratioP1;P2;durP2;ratioP2
55362;SDS011;41244;49.242;9.060;2023-03-01T00:01:20;20.40;;;14.73;;
55362;SDS011;41244;49.242;9.060;2023-03-01T00:03:50;18.05;;;13.30;;
55362;SDS011;41244;49.242;9.060;2023-03-01T00:06:17;19.33;;;14.32;;
55362;SDS011;41244;49.242;9.060;2023-03-01T00:08:43;20.90;;;14.70;;
55362;SDS011;41244;49.242;9.060;2023-03-01T00:13:39;19.63;;;15.20;;
55362;SDS011;41244;49.242;9.060;2023-03-01T00:16:07;23.17;;;15.27;;
55362;SDS011;41244;49.242;9.060;2023-03-01T00:18:35;20.15;;;14.70;;
55362;SDS011;41244;49.242;9.060;2023-03-01T00:21:01;20.05;;;14.52;;
55362;SDS011;41244;49.242;9.060;2023-03-01T00:23:28;20.92;;;14.23;;
55362;SDS011;41244;49.242;9.060;2023-03-01T00:25:53;17.58;;;13.07;;
55362;SDS011;41244;49.242;9.060;2023-03-01T00:28:19;20.50;;;14.25;;
55362;SDS011;41244;49.242;9.060;2023-03-01T00:30:46;21.30;;;14.90;;
55362;SDS011;41244;49.242;9.060;2023-03-01T00:33:13;20.10;;;14.40;;
55362;SDS011;41244;49.242;9.060;2023-03-01T00:35:38;20.95;;;14.27;;
55362;SDS011;41244;49.242;9.060;2023-03-01T00:38:04;19.02;;;13.82;;
55362;SDS011;41244;49.242;9.060;2023-03-01T00:40:31;20.58;;;14.63;;
55362;SDS011;41244;49.242;9.060;2023-03-01T00:42:59;20.77;;;14.13;;
55362;SDS011;41244;49.242;9.060;2023-03-01T00:45:26;22.85;;;16.48;;
55362;SDS011;41244;49.242;9.060;2023-03-01T00:47:52;22.98;;;16.27;;
55362;SDS011;41244;49.242;9.060;2023-03-01T00:50:18;21.50;;;15.32;;
55362;SDS011;41244;49.242;9.060;2023-03-01T00:52:45;19.30;;;14.50;;
55362;SDS011;41244;49.242;9.060;2023-03-01T00:55:11;19.92;;;14.48;;
55362;SDS011;41244;49.242;9.060;2023-03-01T00:57:37;24.10;;;16.05;;
55362;SDS011;41244;49.242;9.060;2023-03-01T01:00:04;21.08;;;15.13;;
55362;SDS011;41244;49.242;9.060;2023-03-01T01:02:34;21.83;;;15.25;;
55362;SDS011;41244;49.242;9.060;2023-03-01T01:05:00;19.08;;;14.70;;
55362;SDS011;41244;49.242;9.060;2023-03-01T01:07:26;23.98;;;16.95;;
55362;SDS011;41244;49.242;9.060;2023-03-01T01:09:52;20.20;;;15.85;;
55362;SDS011;41244;49.242;9.060;2023-03-01T01:12:17;22.88;;;15.30;;
55362;SDS011;41244;49.242;9.060;2023-03-01T01:14:43;22.98;;;14.43;;
55362;SDS011;41244;49.242;9.060;2023-03-01T01:17:09;22.42;;;16.40;;
55362;SDS011;41244;49.242;9.060;2023-03-01T01:19:35;22.70;;;16.27;;
55362;SDS011;41244;49.242;9.060;2023-03-01T01:22:00;20.13;;;14.95;;
55362;SDS011;41244;49.242;9.060;2023-03-01T01:24:27;23.92;;;15.45;;
55362;SDS011;41244;49.242;9.060;2023-03-01T01:26:52;21.42;;;15.63;;
55362;SDS011;41244;49.242;9.060;2023-03-01T01:29:18;23.48;;;15.20;;
55362;SDS011;41244;49.242;9.060;2023-03-01T01:31:44;24.25;;;14.98;;
55362;SDS011;41244;49.242;9.060;2023-03-01T01:34:17;22.45;;;15.68;;
55362;SDS011;41244;49.242;9.060;2023-03-01T01:36:49;22.83;;;15.27;;
55362;SDS011;41244;49.242;9.060;2023-03-01T01:39:19;25.85;;;16.65;;
55362;SDS011;41244;49.242;9.060;2023-03-01T01:41:45;21.92;;;16.50;;
55362;SDS011;41244;49.242;9.060;2023-03-01T01:44:20;24.42;;;17.33;;
55362;SDS011;41244;49.242;9.060;2023-03-01T01:47:02;22.60;;;15.73;;
55362;SDS011;41244;49.242;9.060;2023-03-01T01:49:47;23.07;;;16.40;;
55362;SDS011;41244;49.242;9.060;2023-03-01T01:52:17;22.23;;;16.40;;
55362;SDS011;41244;49.242;9.060;2023-03-01T01:57:27;21.98;;;15.52;;
55362;SDS011;41244;49.242;9.060;2023-03-01T02:00:00;24.92;;;16.63;;
55362;SDS011;41244;49.242;9.060;2023-03-01T02:02:35;20.98;;;15.80;;
55362;SDS011;41244;49.242;9.060;2023-03-01T02:05:03;21.83;;;15.30;;
55362;SDS011;41244;49.242;9.060;2023-03-01T02:07:40;29.48;;;17.67;;
55362;SDS011;41244;49.242;9.060;2023-03-01T02:10:07;23.13;;;14.90;;
55362;SDS011;41244;49.242;9.060;2023-03-01T02:12:33;24.88;;;15.82;;
55362;SDS011;41244;49.242;9.060;2023-03-01T02:14:59;21.67;;;15.70;;
55362;SDS011;41244;49.242;9.060;2023-03-01T02:17:25;24.83;;;16.35;;
55362;SDS011;41244;49.242;9.060;2023-03-01T02:19:54;24.83;;;16.58;;
55362;SDS011;41244;49.242;9.060;2023-03-01T02:22:32;22.40;;;15.93;;
55362;SDS011;41244;49.242;9.060;2023-03-01T02:30:35;25.10;;;16.65;;
55362;SDS011;41244;49.242;9.060;2023-03-01T02:33:02;22.33;;;16.40;;
55362;SDS011;41244;49.242;9.060;2023-03-01T02:35:33;25.55;;;17.30;;
55362;SDS011;41244;49.242;9.060;2023-03-01T02:38:03;23.90;;;16.83;;
55362;SDS011;41244;49.242;9.060;2023-03-01T02:40:31;26.35;;;17.23;;
55362;SDS011;41244;49.242;9.060;2023-03-01T02:42:59;23.95;;;17.42;;
55362;SDS011;41244;49.242;9.060;2023-03-01T02:45:25;24.25;;;16.42;;
55362;SDS011;41244;49.242;9.060;2023-03-01T02:47:55;23.98;;;16.45;;
55362;SDS011;41244;49.242;9.060;2023-03-01T02:50:25;24.10;;;16.58;;
55362;SDS011;41244;49.242;9.060;2023-03-01T02:53:45;24.88;;;16.40;;
55362;SDS011;41244;49.242;9.060;2023-03-01T02:57:07;24.35;;;16.70;;
55362;SDS011;41244;49.242;9.060;2023-03-01T02:59:34;24.40;;;17.48;;
55362;SDS011;41244;49.242;9.060;2023-03-01T03:02:04;25.42;;;17.42;;
55362;SDS011;41244;49.242;9.060;2023-03-01T03:04:32;24.52;;;16.65;;
55362;SDS011;41244;49.242;9.060;2023-03-01T03:06:57;23.10;;;16.70;;
55362;SDS011;41244;49.242;9.060;2023-03-01T03:09:23;24.02;;;16.52;;
55362;SDS011;41244;49.242;9.060;2023-03-01T03:11:49;27.17;;;17.83;;
55362;SDS011;41244;49.242;9.060;2023-03-01T03:14:16;27.83;;;17.08;;
55362;SDS011;41244;49.242;9.060;2023-03-01T03:16:43;24.95;;;16.65;;
55362;SDS011;41244;49.242;9.060;2023-03-01T03:19:12;26.48;;;18.25;;
55362;SDS011;41244;49.242;9.060;2023-03-01T03:21:38;25.90;;;16.92;;
55362;SDS011;41244;49.242;9.060;2023-03-01T03:24:04;27.83;;;17.55;;
55362;SDS011;41244;49.242;9.060;2023-03-01T03:26:31;25.75;;;16.73;;
55362;SDS011;41244;49.242;9.060;2023-03-01T03:28:57;26.27;;;17.33;;
55362;SDS011;41244;49.242;9.060;2023-03-01T03:31:23;25.95;;;17.90;;
55362;SDS011;41244;49.242;9.060;2023-03-01T03:33:49;25.40;;;17.58;;
55362;SDS011;41244;49.242;9.060;2023-03-01T03:36:19;26.08;;;17.83;;
55362;SDS011;41244;49.242;9.060;2023-03-01T03:38:47;27.85;;;17.55;;
55362;SDS011;41244;49.242;9.060;2023-03-01T03:41:14;24.98;;;17.60;;
55362;SDS011;41244;49.242;9.060;2023-03-01T03:43:40;24.83;;;17.38;;
55362;SDS011;41244;49.242;9.060;2023-03-01T03:46:08;26.70;;;16.67;;
55362;SDS011;41244;49.242;9.060;2023-03-01T03:48:36;27.15;;;17.77;;
55362;SDS011;41244;49.242;9.060;2023-03-01T03:53:36;26.45;;;16.90;;
55362;SDS011;41244;49.242;9.060;2023-03-01T03:56:02;26.48;;;18.08;;
55362;SDS011;41244;49.242;9.060;2023-03-01T03:58:28;26.52;;;17.80;;
55362;SDS011;41244;49.242;9.060;2023-03-01T04:00:55;28.45;;;18.35;;
55362;SDS011;41244;49.242;9.060;2023-03-01T04:03:22;27.08;;;18.25;;
55362;SDS011;41244;49.242;9.060;2023-03-01T04:05:50;24.58;;;17.30;;
55362;SDS011;41244;49.242;9.060;2023-03-01T04:08:17;25.08;;;17.02;;
55362;SDS011;41244;49.242;9.060;2023-03-01T04:10:46;28.00;;;18.13;;
55362;SDS011;41244;49.242;9.060;2023-03-01T04:13:16;27.38;;;17.80;;
55362;SDS011;41244;49.242;9.060;2023-03-01T04:15:45;25.70;;;17.17;;
55362;SDS011;41244;49.242;9.060;2023-03-01T04:18:16;26.35;;;17.88;;
55362;SDS011;41244;49.242;9.060;2023-03-01T04:20:44;31.23;;;18.73;;
55362;SDS011;41244;49.242;9.060;2023-03-01T04:23:14;27.38;;;18.13;;
55362;SDS011;41244;49.242;9.060;2023-03-01T04:25:49;27.15;;;17.75;;
55362;SDS011;41244;49.242;9.060;2023-03-01T04:28:24;25.58;;;18.13;;
55362;SDS011;41244;49.242;9.060;2023-03-01T04:30:52;28.63;;;19.27;;
55362;SDS011;41244;49.242;9.060;2023-03-01T04:33:20;27.65;;;17.73;;
55362;SDS011;41244;49.242;9.060;2023-03-01T04:35:46;28.83;;;19.38;;
55362;SDS011;41244;49.242;9.060;2023-03-01T04:38:14;29.13;;;17.45;;
55362;SDS011;41244;49.242;9.060;2023-03-01T04:40:44;27.35;;;18.40;;
55362;SDS011;41244;49.242;9.060;2023-03-01T04:43:11;30.27;;;19.10;;
55362;SDS011;41244;49.242;9.060;2023-03-01T04:45:40;28.02;;;16.70;;
55362;SDS011;41244;49.242;9.060;2023-03-01T04:48:06;30.38;;;17.92;;
55362;SDS011;41244;49.242;9.060;2023-03-01T04:50:32;28.35;;;19.38;;
55362;SDS011;41244;49.242;9.060;2023-03-01T04:52:58;26.63;;;16.23;;
55362;SDS011;41244;49.242;9.060;2023-03-01T04:55:24;25.70;;;18.27;;
55362;SDS011;41244;49.242;9.060;2023-03-01T04:57:52;27.52;;;18.52;;
55362;SDS011;41244;49.242;9.060;2023-03-01T05:00:18;28.15;;;19.15;;
55362;SDS011;41244;49.242;9.060;2023-03-01T05:03:06;26.85;;;18.95;;
55362;SDS011;41244;49.242;9.060;2023-03-01T05:05:32;30.88;;;19.65;;
55362;SDS011;41244;49.242;9.060;2023-03-01T05:08:03;26.00;;;17.73;;
55362;SDS011;41244;49.242;9.060;2023-03-01T05:10:34;26.83;;;18.05;;
55362;SDS011;41244;49.242;9.060;2023-03-01T05:13:01;27.77;;;19.23;;
55362;SDS011;41244;49.242;9.060;2023-03-01T05:15:29;28.98;;;17.67;;
55362;SDS011;41244;49.242;9.060;2023-03-01T05:17:56;28.40;;;18.30;;
55362;SDS011;41244;49.242;9.060;2023-03-01T05:20:24;28.63;;;18.67;;
55362;SDS011;41244;49.242;9.060;2023-03-01T05:22:52;29.38;;;18.95;;
55362;SDS011;41244;49.242;9.060;2023-03-01T05:25:23;28.13;;;17.73;;
55362;SDS011;41244;49.242;9.060;2023-03-01T05:27:49;28.05;;;16.77;;
55362;SDS011;41244;49.242;9.060;2023-03-01T05:30:16;29.73;;;18.60;;
55362;SDS011;41244;49.242;9.060;2023-03-01T05:32:44;31.20;;;18.67;;
55362;SDS011;41244;49.242;9.060;2023-03-01T05:35:15;27.60;;;18.55;;
55362;SDS011;41244;49.242;9.060;2023-03-01T05:37:43;29.73;;;21.42;;
55362;SDS011;41244;49.242;9.060;2023-03-01T05:40:12;27.40;;;18.95;;
55362;SDS011;41244;49.242;9.060;2023-03-01T05:42:48;30.80;;;18.87;;
55362;SDS011;41244;49.242;9.060;2023-03-01T05:45:20;27.38;;;18.88;;
55362;SDS011;41244;49.242;9.060;2023-03-01T05:47:47;27.38;;;16.45;;
55362;SDS011;41244;49.242;9.060;2023-03-01T05:50:15;28.38;;;16.10;;
55362;SDS011;41244;49.242;9.060;2023-03-01T05:52:48;28.50;;;19.73;;
55362;SDS011;41244;49.242;9.060;2023-03-01T05:55:30;27.70;;;17.85;;
55362;SDS011;41244;49.242;9.060;2023-03-01T05:58:04;29.20;;;20.15;;
55362;SDS011;41244;49.242;9.060;2023-03-01T06:00:36;31.67;;;19.38;;
55362;SDS011;41244;49.242;9.060;2023-03-01T06:03:02;27.60;;;19.33;;
55362;SDS011;41244;49.242;9.060;2023-03-01T06:05:28;29.70;;;18.90;;
55362;SDS011;41244;49.242;9.060;2023-03-01T06:07:54;28.30;;;18.92;;
55362;SDS011;41244;49.242;9.060;2023-03-01T06:10:22;28.70;;;17.25;;
55362;SDS011;41244;49.242;9.060;2023-03-01T06:12:48;29.38;;;19.42;;
55362;SDS011;41244;49.242;9.060;2023-03-01T06:15:14;32.30;;;19.08;;
55362;SDS011;41244;49.242;9.060;2023-03-01T06:17:42;31.40;;;19.77;;
55362;SDS011;41244;49.242;9.060;2023-03-01T06:20:10;33.17;;;20.50;;
55362;SDS011;41244;49.242;9.060;2023-03-01T06:22:44;27.50;;;19.20;;
55362;SDS011;41244;49.242;9.060;2023-03-01T06:25:11;27.85;;;19.45;;
55362;SDS011;41244;49.242;9.060;2023-03-01T06:27:39;27.90;;;18.83;;
55362;SDS011;41244;49.242;9.060;2023-03-01T06:30:06;30.25;;;20.17;;
55362;SDS011;41244;49.242;9.060;2023-03-01T06:32:35;26.58;;;18.20;;
55362;SDS011;41244;49.242;9.060;2023-03-01T06:35:02;30.33;;;19.95;;
55362;SDS011;41244;49.242;9.060;2023-03-01T06:37:29;33.45;;;18.80;;
55362;SDS011;41244;49.242;9.060;2023-03-01T06:39:55;28.60;;;18.35;;
55362;SDS011;41244;49.242;9.060;2023-03-01T06:42:21;28.48;;;18.55;;
55362;SDS011;41244;49.242;9.060;2023-03-01T06:44:47;27.17;;;18.90;;
55362;SDS011;41244;49.242;9.060;2023-03-01T06:47:12;28.38;;;19.35;;
55362;SDS011;41244;49.242;9.060;2023-03-01T06:49:38;29.73;;;19.10;;
55362;SDS011;41244;49.242;9.060;2023-03-01T06:52:04;29.60;;;19.30;;
55362;SDS011;41244;49.242;9.060;2023-03-01T06:54:30;31.27;;;20.27;;
55362;SDS011;41244;49.242;9.060;2023-03-01T06:56:55;27.95;;;19.42;;
55362;SDS011;41244;49.242;9.060;2023-03-01T06:59:21;29.98;;;18.92;;
55362;SDS011;41244;49.242;9.060;2023-03-01T07:01:47;29.65;;;20.33;;
55362;SDS011;41244;49.242;9.060;2023-03-01T07:04:12;28.17;;;18.80;;
55362;SDS011;41244;49.242;9.060;2023-03-01T07:06:38;28.33;;;18.23;;
55362;SDS011;41244;49.242;9.060;2023-03-01T07:09:05;27.02;;;19.15;;
55362;SDS011;41244;49.242;9.060;2023-03-01T07:11:30;27.23;;;18.52;;
55362;SDS011;41244;49.242;9.060;2023-03-01T07:13:57;26.10;;;18.15;;
55362;SDS011;41244;49.242;9.060;2023-03-01T07:16:24;31.63;;;18.50;;
55362;SDS011;41244;49.242;9.060;2023-03-01T07:18:50;29.20;;;19.08;;
55362;SDS011;41244;49.242;9.060;2023-03-01T07:21:16;24.80;;;16.95;;
55362;SDS011;41244;49.242;9.060;2023-03-01T07:23:42;28.08;;;18.33;;
55362;SDS011;41244;49.242;9.060;2023-03-01T07:26:08;27.73;;;19.05;;
55362;SDS011;41244;49.242;9.060;2023-03-01T07:28:34;28.98;;;18.55;;
55362;SDS011;41244;49.242;9.060;2023-03-01T07:31:03;28.20;;;18.65;;
55362;SDS011;41244;49.242;9.060;2023-03-01T07:33:29;27.00;;;18.08;;
55362;SDS011;41244;49.242;9.060;2023-03-01T07:35:55;25.15;;;17.65;;
55362;SDS011;41244;49.242;9.060;2023-03-01T07:38:26;25.90;;;18.60;;
55362;SDS011;41244;49.242;9.060;2023-03-01T07:40:52;31.48;;;18.20;;
55362;SDS011;41244;49.242;9.060;2023-03-01T07:43:18;28.75;;;20.00;;
55362;SDS011;41244;49.242;9.060;2023-03-01T07:45:45;26.85;;;18.98;;
55362;SDS011;41244;49.242;9.060;2023-03-01T07:48:11;26.85;;;18.88;;
55362;SDS011;41244;49.242;9.060;2023-03-01T07:50:37;32.58;;;20.33;;
55362;SDS011;41244;49.242;9.060;2023-03-01T07:53:03;27.70;;;19.40;;
55362;SDS011;41244;49.242;9.060;2023-03-01T07:55:29;26.13;;;18.27;;
55362;SDS011;41244;49.242;9.060;2023-03-01T07:57:55;29.40;;;17.80;;
55362;SDS011;41244;49.242;9.060;2023-03-01T08:00:21;29.25;;;18.73;;
55362;SDS011;41244;49.242;9.060;2023-03-01T08:02:48;29.10;;;19.90;;
55362;SDS011;41244;49.242;9.060;2023-03-01T08:05:13;28.15;;;18.38;;
55362;SDS011;41244;49.242;9.060;2023-03-01T08:07:39;29.73;;;18.77;;
55362;SDS011;41244;49.242;9.060;2023-03-01T08:10:05;26.65;;;17.17;;
55362;SDS011;41244;49.242;9.060;2023-03-01T08:12:31;32.85;;;20.15;;
55362;SDS011;41244;49.242;9.060;2023-03-01T08:14:57;26.70;;;16.08;;
55362;SDS011;41244;49.242;9.060;2023-03-01T08:17:23;26.52;;;18.33;;
55362;SDS011;41244;49.242;9.060;2023-03-01T08:19:49;27.80;;;18.48;;
55362;SDS011;41244;49.242;9.060;2023-03-01T08:22:14;28.17;;;19.85;;
55362;SDS011;41244;49.242;9.060;2023-03-01T08:24:40;26.33;;;19.58;;
55362;SDS011;41244;49.242;9.060;2023-03-01T08:27:06;40.10;;;26.40;;
55362;SDS011;41244;49.242;9.060;2023-03-01T08:29:32;22.13;;;16.52;;
55362;SDS011;41244;49.242;9.060;2023-03-01T08:31:58;26.13;;;18.27;;
55362;SDS011;41244;49.242;9.060;2023-03-01T08:34:24;31.00;;;18.85;;
55362;SDS011;41244;49.242;9.060;2023-03-01T08:36:50;28.35;;;19.10;;
55362;SDS011;41244;49.242;9.060;2023-03-01T08:39:17;22.50;;;15.38;;
55362;SDS011;41244;49.242;9.060;2023-03-01T08:41:45;28.30;;;19.55;;
55362;SDS011;41244;49.242;9.060;2023-03-01T08:44:12;23.42;;;16.42;;
55362;SDS011;41244;49.242;9.060;2023-03-01T08:46:42;29.30;;;19.52;;
55362;SDS011;41244;49.242;9.060;2023-03-01T08:49:14;25.92;;;18.15;;
55362;SDS011;41244;49.242;9.060;2023-03-01T08:51:42;28.40;;;18.23;;
55362;SDS011;41244;49.242;9.060;2023-03-01T08:54:12;25.40;;;18.83;;
55362;SDS011;41244;49.242;9.060;2023-03-01T08:56:44;27.73;;;17.10;;
55362;SDS011;41244;49.242;9.060;2023-03-01T08:59:11;28.35;;;19.20;;
55362;SDS011;41244;49.242;9.060;2023-03-01T09:01:38;27.13;;;19.60;;
55362;SDS011;41244;49.242;9.060;2023-03-01T09:04:05;26.67;;;20.75;;
55362;SDS011;41244;49.242;9.060;2023-03-01T09:06:31;27.73;;;20.92;;
55362;SDS011;41244;49.242;9.060;2023-03-01T09:08:58;28.65;;;19.85;;
55362;SDS011;41244;49.242;9.060;2023-03-01T09:11:24;30.33;;;22.30;;
55362;SDS011;41244;49.242;9.060;2023-03-01T09:13:50;26.67;;;19.15;;
55362;SDS011;41244;49.242;9.060;2023-03-01T09:16:17;29.75;;;20.52;;
55362;SDS011;41244;49.242;9.060;2023-03-01T09:18:44;28.40;;;18.90;;
55362;SDS011;41244;49.242;9.060;2023-03-01T09:21:15;26.30;;;18.75;;
55362;SDS011;41244;49.242;9.060;2023-03-01T09:23:43;22.25;;;16.98;;
55362;SDS011;41244;49.242;9.060;2023-03-01T09:26:12;30.20;;;19.83;;
55362;SDS011;41244;49.242;9.060;2023-03-01T09:28:44;28.08;;;16.70;;
55362;SDS011;41244;49.242;9.060;2023-03-01T09:31:11;26.73;;;18.83;;
55362;SDS011;41244;49.242;9.060;2023-03-01T09:33:38;30.05;;;21.08;;
55362;SDS011;41244;49.242;9.060;2023-03-01T09:36:06;29.90;;;20.40;;
55362;SDS011;41244;49.242;9.060;2023-03-01T09:38:36;24.02;;;18.02;;
55362;SDS011;41244;49.242;9.060;2023-03-01T09:41:02;28.35;;;18.35;;
55362;SDS011;41244;49.242;9.060;2023-03-01T09:46:31;26.65;;;18.80;;
55362;SDS011;41244;49.242;9.060;2023-03-01T09:49:09;26.40;;;17.15;;
55362;SDS011;41244;49.242;9.060;2023-03-01T09:51:41;28.50;;;21.25;;
55362;SDS011;41244;49.242;9.060;2023-03-01T09:54:08;29.73;;;20.17;;
55362;SDS011;41244;49.242;9.060;2023-03-01T09:56:40;25.67;;;19.40;;
55362;SDS011;41244;49.242;9.060;2023-03-01T10:04:47;29.10;;;20.60;;
55362;SDS011;41244;49.242;9.060;2023-03-01T10:10:04;28.88;;;19.90;;
55362;SDS011;41244;49.242;9.060;2023-03-01T10:12:35;27.38;;;21.20;;
55362;SDS011;41244;49.242;9.060;2023-03-01T10:15:08;28.85;;;18.45;;
55362;SDS011;41244;49.242;9.060;2023-03-01T10:17:44;29.05;;;20.10;;
55362;SDS011;41244;49.242;9.060;2023-03-01T10:20:33;27.98;;;18.65;;
55362;SDS011;41244;49.242;9.060;2023-03-01T10:23:33;28.88;;;19.73;;
55362;SDS011;41244;49.242;9.060;2023-03-01T10:28:49;30.30;;;21.08;;
55362;SDS011;41244;49.242;9.060;2023-03-01T10:31:51;29.00;;;20.40;;
55362;SDS011;41244;49.242;9.060;2023-03-01T10:37:11;27.70;;;21.20;;
55362;SDS011;41244;49.242;9.060;2023-03-01T10:39:54;26.65;;;19.90;;
55362;SDS011;41244;49.242;9.060;2023-03-01T10:42:22;29.77;;;21.45;;
55362;SDS011;41244;49.242;9.060;2023-03-01T10:44:56;29.48;;;20.15;;
55362;SDS011;41244;49.242;9.060;2023-03-01T10:47:23;26.95;;;20.48;;
55362;SDS011;41244;49.242;9.060;2023-03-01T10:49:59;27.98;;;20.33;;
55362;SDS011;41244;49.242;9.060;2023-03-01T10:52:37;28.65;;;20.42;;
55362;SDS011;41244;49.242;9.060;2023-03-01T10:55:26;29.65;;;20.80;;
55362;SDS011;41244;49.242;9.060;2023-03-01T10:58:20;26.17;;;19.52;;
55362;SDS011;41244;49.242;9.060;2023-03-01T11:03:17;25.85;;;19.85;;
55362;SDS011;41244;49.242;9.060;2023-03-01T11:06:12;26.63;;;19.40;;
55362;SDS011;41244;49.242;9.060;2023-03-01T11:08:47;26.13;;;20.10;;
55362;SDS011;41244;49.242;9.060;2023-03-01T11:16:48;27.08;;;21.00;;
55362;SDS011;41244;49.242;9.060;2023-03-01T11:19:39;28.05;;;20.17;;
55362;SDS011;41244;49.242;9.060;2023-03-01T11:22:26;30.13;;;19.58;;
55362;SDS011;41244;49.242;9.060;2023-03-01T11:24:51;26.17;;;19.08;;
55362;SDS011;41244;49.242;9.060;2023-03-01T11:27:21;26.65;;;19.88;;
55362;SDS011;41244;49.242;9.060;2023-03-01T11:29:56;26.65;;;21.00;;
55362;SDS011;41244;49.242;9.060;2023-03-01T11:33:01;24.98;;;19.20;;
55362;SDS011;41244;49.242;9.060;2023-03-01T11:36:12;25.98;;;19.48;;
55362;SDS011;41244;49.242;9.060;2023-03-01T11:38:57;26.95;;;20.50;;
55362;SDS011;41244;49.242;9.060;2023-03-01T11:41:48;30.92;;;21.55;;
55362;SDS011;41244;49.242;9.060;2023-03-01T11:44:19;26.85;;;19.38;;
55362;SDS011;41244;49.242;9.060;2023-03-01T11:47:00;27.00;;;19.33;;
55362;SDS011;41244;49.242;9.060;2023-03-01T11:55:19;26.48;;;19.80;;
55362;SDS011;41244;49.242;9.060;2023-03-01T12:22:18;26.80;;;19.63;;
55362;SDS011;41244;49.242;9.060;2023-03-01T12:28:25;25.98;;;19.38;;
55362;SDS011;41244;49.242;9.060;2023-03-01T12:36:18;24.58;;;19.10;;
55362;SDS011;41244;49.242;9.060;2023-03-01T12:50:47;24.67;;;17.77;;
55362;SDS011;41244;49.242;9.060;2023-03-01T12:53:24;25.70;;;19.73;;
55362;SDS011;41244;49.242;9.060;2023-03-01T12:56:10;24.98;;;19.65;;
55362;SDS011;41244;49.242;9.060;2023-03-01T12:59:02;25.10;;;18.65;;
55362;SDS011;41244;49.242;9.060;2023-03-01T13:04:37;24.38;;;19.65;;
55362;SDS011;41244;49.242;9.060;2023-03-01T13:07:37;23.58;;;19.02;;
55362;SDS011;41244;49.242;9.060;2023-03-01T13:13:21;22.83;;;18.48;;
55362;SDS011;41244;49.242;9.060;2023-03-01T13:15:52;28.52;;;18.98;;
55362;SDS011;41244;49.242;9.060;2023-03-01T13:20:55;23.88;;;17.65;;
55362;SDS011;41244;49.242;9.060;2023-03-01T13:23:27;28.95;;;18.17;;
55362;SDS011;41244;49.242;9.060;2023-03-01T13:26:03;24.35;;;18.60;;
55362;SDS011;41244;49.242;9.060;2023-03-01T13:41:52;22.42;;;17.40;;
55362;SDS011;41244;49.242;9.060;2023-03-01T13:44:22;24.15;;;18.17;;
55362;SDS011;41244;49.242;9.060;2023-03-01T13:49:55;26.27;;;19.98;;
55362;SDS011;41244;49.242;9.060;2023-03-01T13:52:34;23.30;;;18.25;;
55362;SDS011;41244;49.242;9.060;2023-03-01T13:55:14;23.23;;;17.27;;
55362;SDS011;41244;49.242;9.060;2023-03-01T13:58:03;21.67;;;16.35;;
55362;SDS011;41244;49.242;9.060;2023-03-01T14:00:42;24.92;;;17.55;;
55362;SDS011;41244;49.242;9.060;2023-03-01T14:05:38;21.60;;;17.40;;
55362;SDS011;41244;49.242;9.060;2023-03-01T14:08:17;25.45;;;18.60;;
55362;SDS011;41244;49.242;9.060;2023-03-01T14:14:02;21.95;;;17.17;;
55362;SDS011;41244;49.242;9.060;2023-03-01T14:19:47;24.52;;;18.02;;
55362;SDS011;41244;49.242;9.060;2023-03-01T14:25:21;22.58;;;16.85;;
55362;SDS011;41244;49.242;9.060;2023-03-01T14:30:36;26.85;;;18.42;;
55362;SDS011;41244;49.242;9.060;2023-03-01T14:33:17;24.85;;;17.15;;
55362;SDS011;41244;49.242;9.060;2023-03-01T14:38:33;23.50;;;18.50;;
55362;SDS011;41244;49.242;9.060;2023-03-01T14:41:16;21.60;;;17.52;;
55362;SDS011;41244;49.242;9.060;2023-03-01T14:43:51;26.10;;;18.63;;
55362;SDS011;41244;49.242;9.060;2023-03-01T14:46:24;22.05;;;16.38;;
55362;SDS011;41244;49.242;9.060;2023-03-01T14:48:58;23.45;;;18.80;;
55362;SDS011;41244;49.242;9.060;2023-03-01T14:51:29;31.33;;;18.27;;
55362;SDS011;41244;49.242;9.060;2023-03-01T14:53:55;24.25;;;17.92;;
55362;SDS011;41244;49.242;9.060;2023-03-01T14:56:21;24.35;;;17.88;;
55362;SDS011;41244;49.242;9.060;2023-03-01T14:58:50;24.77;;;17.35;;
55362;SDS011;41244;49.242;9.060;2023-03-01T15:01:18;26.02;;;18.05;;
55362;SDS011;41244;49.242;9.060;2023-03-01T15:03:46;23.73;;;18.77;;
55362;SDS011;41244;49.242;9.060;2023-03-01T15:06:20;23.50;;;17.88;;
55362;SDS011;41244;49.242;9.060;2023-03-01T15:08:49;22.98;;;17.08;;
55362;SDS011;41244;49.242;9.060;2023-03-01T15:13:56;24.98;;;18.20;;
55362;SDS011;41244;49.242;9.060;2023-03-01T15:16:24;27.02;;;16.08;;
55362;SDS011;41244;49.242;9.060;2023-03-01T15:18:56;23.85;;;17.50;;
55362;SDS011;41244;49.242;9.060;2023-03-01T15:21:27;22.40;;;17.90;;
55362;SDS011;41244;49.242;9.060;2023-03-01T15:24:04;24.95;;;18.00;;
55362;SDS011;41244;49.242;9.060;2023-03-01T15:26:44;26.15;;;17.63;;
55362;SDS011;41244;49.242;9.060;2023-03-01T15:29:19;23.83;;;17.38;;
55362;SDS011;41244;49.242;9.060;2023-03-01T15:32:48;22.13;;;17.67;;
55362;SDS011;41244;49.242;9.060;2023-03-01T15:34:56;24.08;;;17.77;;
55362;SDS011;41244;49.242;9.060;2023-03-01T15:42:45;22.80;;;17.30;;
55362;SDS011;41244;49.242;9.060;2023-03-01T15:45:21;25.92;;;18.10;;
55362;SDS011;41244;49.242;9.060;2023-03-01T15:47:51;25.75;;;17.95;;
55362;SDS011;41244;49.242;9.060;2023-03-01T15:50:26;24.85;;;18.58;;
55362;SDS011;41244;49.242;9.060;2023-03-01T15:53:01;23.05;;;17.58;;
55362;SDS011;41244;49.242;9.060;2023-03-01T15:55:36;24.83;;;18.42;;
55362;SDS011;41244;49.242;9.060;2023-03-01T15:58:12;23.52;;;18.58;;
55362;SDS011;41244;49.242;9.060;2023-03-01T16:00:41;24.48;;;18.15;;
55362;SDS011;41244;49.242;9.060;2023-03-01T16:03:08;24.25;;;18.27;;
55362;SDS011;41244;49.242;9.060;2023-03-01T16:05:36;23.60;;;17.42;;
55362;SDS011;41244;49.242;9.060;2023-03-01T16:08:03;23.60;;;17.20;;
55362;SDS011;41244;49.242;9.060;2023-03-01T16:10:31;27.00;;;18.60;;
55362;SDS011;41244;49.242;9.060;2023-03-01T16:12:58;25.10;;;17.63;;
55362;SDS011;41244;49.242;9.060;2023-03-01T16:15:28;25.65;;;18.42;;
55362;SDS011;41244;49.242;9.060;2023-03-01T16:17:56;22.60;;;17.10;;
55362;SDS011;41244;49.242;9.060;2023-03-01T16:20:25;25.63;;;17.52;;
55362;SDS011;41244;49.242;9.060;2023-03-01T16:22:52;25.98;;;18.25;;
55362;SDS011;41244;49.242;9.060;2023-03-01T16:25:19;25.65;;;17.60;;
55362;SDS011;41244;49.242;9.060;2023-03-01T16:27:46;23.75;;;17.30;;
55362;SDS011;41244;49.242;9.060;2023-03-01T16:30:14;21.75;;;17.45;;
55362;SDS011;41244;49.242;9.060;2023-03-01T16:32:46;24.80;;;18.98;;
55362;SDS011;41244;49.242;9.060;2023-03-01T16:35:13;24.27;;;17.52;;
55362;SDS011;41244;49.242;9.060;2023-03-01T16:37:43;24.85;;;17.95;;
55362;SDS011;41244;49.242;9.060;2023-03-01T16:40:30;25.92;;;17.80;;
55362;SDS011;41244;49.242;9.060;2023-03-01T16:42:56;24.45;;;18.30;;
55362;SDS011;41244;49.242;9.060;2023-03-01T16:45:25;27.67;;;18.42;;
55362;SDS011;41244;49.242;9.060;2023-03-01T16:47:52;24.75;;;17.75;;
55362;SDS011;41244;49.242;9.060;2023-03-01T16:50:18;23.35;;;17.17;;
55362;SDS011;41244;49.242;9.060;2023-03-01T16:52:44;22.85;;;17.85;;
55362;SDS011;41244;49.242;9.060;2023-03-01T16:55:10;26.92;;;17.50;;
55362;SDS011;41244;49.242;9.060;2023-03-01T16:57:36;24.63;;;18.17;;
55362;SDS011;41244;49.242;9.060;2023-03-01T17:00:06;25.58;;;17.30;;